Terminal Aerodrome Forecast
Issued by NWS Omaha/Valley, NE

Home | Current Version | Previous Version | Text Only | Print | Product List | Glossary On
Versions: 1 2 3 4 5 6 7 8 9 10 11 12 13 14 15 16 17 18 19 20 21 22 23 24 25 26 27 28 29 30 31 32 33 34 35 36 37 38
576
FTUS43 KOAX 241936 AAA
TAFLNK
TAF AMD
KLNK 241936Z 2420/2518 25006KT P6SM SCT040 SCT250
     FM242300 18006KT P6SM SCT040 SCT120
     FM250300 12007KT P6SM BKN100
      TEMPO 2503/2505 4SM TSRA BKN025CB
     FM250700 18009KT P6SM OVC070 PROB30 2507/2511 4SM -TSRA
      OVC015CB
     FM251300 16008KT P6SM BKN025=

USA.gov is the U.S. government's official web portal to all federal, state and local government web resources and services.